sensor_id;sensor_type;location;lat;lon;timestamp;pressure;altitude;pressure_sealevel;temperature
40199;BMP280;25906;43.536;26.068;2022-10-13T00:02:30;99389.97;;;14.04
40199;BMP280;25906;43.536;26.068;2022-10-13T00:05:15;99401.03;;;14.06
40199;BMP280;25906;43.536;26.068;2022-10-13T00:08:01;99398.31;;;13.97
40199;BMP280;25906;43.536;26.068;2022-10-13T00:10:48;99396.19;;;13.95
40199;BMP280;25906;43.536;26.068;2022-10-13T00:13:34;99395.75;;;13.89
40199;BMP280;25906;43.536;26.068;2022-10-13T00:16:20;99405.06;;;13.86
40199;BMP280;25906;43.536;26.068;2022-10-13T00:19:05;99405.34;;;13.81
40199;BMP280;25906;43.536;26.068;2022-10-13T00:21:51;99401.63;;;13.76
40199;BMP280;25906;43.536;26.068;2022-10-13T00:24:36;99404.03;;;13.63
40199;BMP280;25906;43.536;26.068;2022-10-13T00:27:23;99404.47;;;13.60
40199;BMP280;25906;43.536;26.068;2022-10-13T00:30:08;99399.03;;;13.60
40199;BMP280;25906;43.536;26.068;2022-10-13T00:32:54;99404.28;;;13.48
40199;BMP280;25906;43.536;26.068;2022-10-13T00:35:45;99406.72;;;13.44
40199;BMP280;25906;43.536;26.068;2022-10-13T00:38:31;99405.00;;;13.39
40199;BMP280;25906;43.536;26.068;2022-10-13T00:41:16;99401.25;;;13.35
40199;BMP280;25906;43.536;26.068;2022-10-13T00:47:08;99401.81;;;13.24
40199;BMP280;25906;43.536;26.068;2022-10-13T00:49:54;99403.50;;;13.20
40199;BMP280;25906;43.536;26.068;2022-10-13T00:52:40;99397.75;;;13.16
40199;BMP280;25906;43.536;26.068;2022-10-13T00:55:30;99409.38;;;13.16
40199;BMP280;25906;43.536;26.068;2022-10-13T00:58:17;99398.94;;;13.13
40199;BMP280;25906;43.536;26.068;2022-10-13T01:01:04;99403.78;;;13.14
40199;BMP280;25906;43.536;26.068;2022-10-13T01:03:50;99410.91;;;13.10
40199;BMP280;25906;43.536;26.068;2022-10-13T01:06:35;99406.75;;;13.09
40199;BMP280;25906;43.536;26.068;2022-10-13T01:09:21;99401.84;;;12.98
40199;BMP280;25906;43.536;26.068;2022-10-13T01:12:51;99418.16;;;12.98
40199;BMP280;25906;43.536;26.068;2022-10-13T01:15:53;99408.97;;;12.93
40199;BMP280;25906;43.536;26.068;2022-10-13T01:18:50;99412.44;;;12.94
40199;BMP280;25906;43.536;26.068;2022-10-13T01:21:46;99410.38;;;12.85
40199;BMP280;25906;43.536;26.068;2022-10-13T01:24:44;99418.91;;;12.72
40199;BMP280;25906;43.536;26.068;2022-10-13T01:31:06;99413.19;;;12.78
40199;BMP280;25906;43.536;26.068;2022-10-13T01:34:01;99420.84;;;12.62
40199;BMP280;25906;43.536;26.068;2022-10-13T01:40:21;99410.81;;;12.55
40199;BMP280;25906;43.536;26.068;2022-10-13T01:43:59;99410.34;;;12.49
40199;BMP280;25906;43.536;26.068;2022-10-13T01:46:31;99413.19;;;12.51
40199;BMP280;25906;43.536;26.068;2022-10-13T01:49:24;99416.31;;;12.48
40199;BMP280;25906;43.536;26.068;2022-10-13T01:52:16;99411.16;;;12.42
40199;BMP280;25906;43.536;26.068;2022-10-13T01:55:09;99418.16;;;12.45
40199;BMP280;25906;43.536;26.068;2022-10-13T01:57:55;99409.88;;;12.43
40199;BMP280;25906;43.536;26.068;2022-10-13T02:00:50;99401.72;;;12.43
40199;BMP280;25906;43.536;26.068;2022-10-13T02:07:37;99397.88;;;12.30
40199;BMP280;25906;43.536;26.068;2022-10-13T02:10:46;99398.38;;;12.19
40199;BMP280;25906;43.536;26.068;2022-10-13T02:13:35;99391.94;;;12.14
40199;BMP280;25906;43.536;26.068;2022-10-13T02:16:27;99390.47;;;12.13
40199;BMP280;25906;43.536;26.068;2022-10-13T02:19:16;99388.03;;;12.08
40199;BMP280;25906;43.536;26.068;2022-10-13T02:22:03;99389.63;;;12.11
40199;BMP280;25906;43.536;26.068;2022-10-13T02:24:49;99387.16;;;12.05
40199;BMP280;25906;43.536;26.068;2022-10-13T02:27:35;99382.72;;;12.00
40199;BMP280;25906;43.536;26.068;2022-10-13T02:30:23;99380.53;;;11.99
40199;BMP280;25906;43.536;26.068;2022-10-13T02:33:10;99370.41;;;11.99
40199;BMP280;25906;43.536;26.068;2022-10-13T02:35:56;99379.41;;;12.02
40199;BMP280;25906;43.536;26.068;2022-10-13T02:38:41;99376.88;;;12.04
40199;BMP280;25906;43.536;26.068;2022-10-13T02:41:27;99373.50;;;11.96
40199;BMP280;25906;43.536;26.068;2022-10-13T02:44:12;99377.66;;;11.97
40199;BMP280;25906;43.536;26.068;2022-10-13T02:46:58;99368.78;;;11.96
40199;BMP280;25906;43.536;26.068;2022-10-13T02:49:44;99365.47;;;11.89
40199;BMP280;25906;43.536;26.068;2022-10-13T02:52:29;99359.94;;;11.79
40199;BMP280;25906;43.536;26.068;2022-10-13T02:55:15;99355.78;;;11.78
40199;BMP280;25906;43.536;26.068;2022-10-13T02:58:00;99359.38;;;11.81
40199;BMP280;25906;43.536;26.068;2022-10-13T03:00:46;99359.22;;;11.79
40199;BMP280;25906;43.536;26.068;2022-10-13T03:03:31;99360.66;;;11.80
40199;BMP280;25906;43.536;26.068;2022-10-13T03:06:17;99359.66;;;11.75
40199;BMP280;25906;43.536;26.068;2022-10-13T03:09:03;99357.78;;;11.78
40199;BMP280;25906;43.536;26.068;2022-10-13T03:11:48;99362.75;;;11.72
40199;BMP280;25906;43.536;26.068;2022-10-13T03:14:34;99345.03;;;11.71
40199;BMP280;25906;43.536;26.068;2022-10-13T03:17:19;99353.38;;;11.65
40199;BMP280;25906;43.536;26.068;2022-10-13T03:20:06;99358.25;;;11.67
40199;BMP280;25906;43.536;26.068;2022-10-13T03:22:51;99358.19;;;11.57
40199;BMP280;25906;43.536;26.068;2022-10-13T03:25:37;99360.34;;;11.59
40199;BMP280;25906;43.536;26.068;2022-10-13T03:28:22;99363.94;;;11.61
40199;BMP280;25906;43.536;26.068;2022-10-13T03:31:10;99361.50;;;11.65
40199;BMP280;25906;43.536;26.068;2022-10-13T03:33:56;99360.91;;;11.57
40199;BMP280;25906;43.536;26.068;2022-10-13T03:36:41;99357.13;;;11.53
40199;BMP280;25906;43.536;26.068;2022-10-13T03:39:27;99365.66;;;11.49
40199;BMP280;25906;43.536;26.068;2022-10-13T03:42:13;99361.03;;;11.43
40199;BMP280;25906;43.536;26.068;2022-10-13T03:44:58;99355.97;;;11.46
40199;BMP280;25906;43.536;26.068;2022-10-13T03:47:44;99363.84;;;11.52
40199;BMP280;25906;43.536;26.068;2022-10-13T03:50:29;99361.50;;;11.48
40199;BMP280;25906;43.536;26.068;2022-10-13T03:53:15;99366.06;;;11.46
40199;BMP280;25906;43.536;26.068;2022-10-13T03:56:01;99363.03;;;11.42
40199;BMP280;25906;43.536;26.068;2022-10-13T03:58:46;99357.44;;;11.40
40199;BMP280;25906;43.536;26.068;2022-10-13T04:01:38;99362.69;;;11.38
40199;BMP280;25906;43.536;26.068;2022-10-13T04:04:24;99361.66;;;11.34
40199;BMP280;25906;43.536;26.068;2022-10-13T04:07:09;99360.81;;;11.24
40199;BMP280;25906;43.536;26.068;2022-10-13T04:09:55;99360.28;;;11.25
40199;BMP280;25906;43.536;26.068;2022-10-13T04:12:40;99358.84;;;11.24
40199;BMP280;25906;43.536;26.068;2022-10-13T04:15:26;99357.97;;;11.22
40199;BMP280;25906;43.536;26.068;2022-10-13T04:18:11;99356.09;;;11.07
40199;BMP280;25906;43.536;26.068;2022-10-13T04:20:57;99357.41;;;10.99
40199;BMP280;25906;43.536;26.068;2022-10-13T04:23:42;99360.69;;;10.97
40199;BMP280;25906;43.536;26.068;2022-10-13T04:26:31;99360.38;;;10.86
40199;BMP280;25906;43.536;26.068;2022-10-13T04:29:16;99365.09;;;10.86
40199;BMP280;25906;43.536;26.068;2022-10-13T04:32:02;99362.03;;;10.82
40199;BMP280;25906;43.536;26.068;2022-10-13T04:34:48;99362.16;;;10.91
40199;BMP280;25906;43.536;26.068;2022-10-13T04:37:33;99367.56;;;10.91
40199;BMP280;25906;43.536;26.068;2022-10-13T04:40:18;99367.19;;;10.95
40199;BMP280;25906;43.536;26.068;2022-10-13T04:43:04;99361.72;;;11.02
40199;BMP280;25906;43.536;26.068;2022-10-13T04:45:49;99368.97;;;10.99
40199;BMP280;25906;43.536;26.068;2022-10-13T04:48:35;99365.00;;;11.00
40199;BMP280;25906;43.536;26.068;2022-10-13T04:51:22;99366.25;;;10.99
40199;BMP280;25906;43.536;26.068;2022-10-13T04:54:09;99364.94;;;11.08
40199;BMP280;25906;43.536;26.068;2022-10-13T04:56:54;99363.66;;;11.09
40199;BMP280;25906;43.536;26.068;2022-10-13T04:59:39;99364.22;;;11.07
40199;BMP280;25906;43.536;26.068;2022-10-13T05:02:25;99355.19;;;11.05
40199;BMP280;25906;43.536;26.068;2022-10-13T05:05:11;99358.25;;;11.09
40199;BMP280;25906;43.536;26.068;2022-10-13T05:07:56;99352.94;;;11.18
40199;BMP280;25906;43.536;26.068;2022-10-13T05:10:42;99360.69;;;11.22
40199;BMP280;25906;43.536;26.068;2022-10-13T05:13:28;99357.56;;;11.25
40199;BMP280;25906;43.536;26.068;2022-10-13T05:16:16;99357.03;;;11.27
40199;BMP280;25906;43.536;26.068;2022-10-13T05:19:02;99359.88;;;11.29
40199;BMP280;25906;43.536;26.068;2022-10-13T05:21:48;99359.88;;;11.29
40199;BMP280;25906;43.536;26.068;2022-10-13T05:24:33;99373.22;;;11.34
40199;BMP280;25906;43.536;26.068;2022-10-13T05:27:22;99365.88;;;11.44
40199;BMP280;25906;43.536;26.068;2022-10-13T05:30:08;99371.56;;;11.55
40199;BMP280;25906;43.536;26.068;2022-10-13T05:32:54;99367.34;;;11.62
40199;BMP280;25906;43.536;26.068;2022-10-13T05:35:39;99376.72;;;11.68
40199;BMP280;25906;43.536;26.068;2022-10-13T05:38:25;99380.06;;;11.76
40199;BMP280;25906;43.536;26.068;2022-10-13T05:41:12;99372.00;;;11.86
40199;BMP280;25906;43.536;26.068;2022-10-13T05:44:04;99382.84;;;11.86
40199;BMP280;25906;43.536;26.068;2022-10-13T05:46:50;99384.00;;;11.83
40199;BMP280;25906;43.536;26.068;2022-10-13T05:49:36;99388.59;;;11.90
40199;BMP280;25906;43.536;26.068;2022-10-13T05:52:24;99393.94;;;11.97
40199;BMP280;25906;43.536;26.068;2022-10-13T05:55:12;99394.72;;;12.07
40199;BMP280;25906;43.536;26.068;2022-10-13T05:58:00;99397.75;;;12.11
40199;BMP280;25906;43.536;26.068;2022-10-13T06:00:46;99396.38;;;12.19
40199;BMP280;25906;43.536;26.068;2022-10-13T06:03:32;99395.59;;;12.26
40199;BMP280;25906;43.536;26.068;2022-10-13T06:06:18;99401.03;;;12.26
40199;BMP280;25906;43.536;26.068;2022-10-13T06:09:04;99401.66;;;12.34
40199;BMP280;25906;43.536;26.068;2022-10-13T06:11:49;99400.28;;;12.42
40199;BMP280;25906;43.536;26.068;2022-10-13T06:14:35;99401.78;;;12.53
40199;BMP280;25906;43.536;26.068;2022-10-13T06:17:20;99396.94;;;12.61
40199;BMP280;25906;43.536;26.068;2022-10-13T06:20:07;99396.75;;;12.76
40199;BMP280;25906;43.536;26.068;2022-10-13T06:22:54;99391.50;;;12.87
40199;BMP280;25906;43.536;26.068;2022-10-13T06:25:50;99388.84;;;12.96
40199;BMP280;25906;43.536;26.068;2022-10-13T06:28:36;99394.88;;;13.04
40199;BMP280;25906;43.536;26.068;2022-10-13T06:31:22;99394.59;;;13.10
40199;BMP280;25906;43.536;26.068;2022-10-13T06:34:07;99399.38;;;13.28
40199;BMP280;25906;43.536;26.068;2022-10-13T06:36:53;99397.13;;;13.43
40199;BMP280;25906;43.536;26.068;2022-10-13T06:39:38;99398.31;;;13.59
40199;BMP280;25906;43.536;26.068;2022-10-13T06:42:24;99397.19;;;13.81
40199;BMP280;25906;43.536;26.068;2022-10-13T06:45:09;99395.16;;;13.91
40199;BMP280;25906;43.536;26.068;2022-10-13T06:47:55;99390.72;;;14.05
40199;BMP280;25906;43.536;26.068;2022-10-13T06:50:41;99393.72;;;14.09
40199;BMP280;25906;43.536;26.068;2022-10-13T06:53:26;99390.84;;;14.16
40199;BMP280;25906;43.536;26.068;2022-10-13T06:56:11;99398.25;;;14.34
40199;BMP280;25906;43.536;26.068;2022-10-13T06:58:57;99392.97;;;14.36
40199;BMP280;25906;43.536;26.068;2022-10-13T07:01:42;99391.94;;;14.41
40199;BMP280;25906;43.536;26.068;2022-10-13T07:04:28;99390.91;;;14.56
40199;BMP280;25906;43.536;26.068;2022-10-13T07:07:14;99394.44;;;14.77
40199;BMP280;25906;43.536;26.068;2022-10-13T07:10:00;99397.13;;;14.86
40199;BMP280;25906;43.536;26.068;2022-10-13T07:12:46;99399.78;;;14.96
40199;BMP280;25906;43.536;26.068;2022-10-13T07:15:31;99401.50;;;15.01
40199;BMP280;25906;43.536;26.068;2022-10-13T07:18:17;99405.56;;;15.20
40199;BMP280;25906;43.536;26.068;2022-10-13T07:21:03;99401.94;;;15.18
40199;BMP280;25906;43.536;26.068;2022-10-13T07:23:49;99397.69;;;15.36
40199;BMP280;25906;43.536;26.068;2022-10-13T07:26:34;99390.22;;;15.57
40199;BMP280;25906;43.536;26.068;2022-10-13T07:29:20;99400.34;;;15.87
40199;BMP280;25906;43.536;26.068;2022-10-13T07:32:14;99382.19;;;15.91
40199;BMP280;25906;43.536;26.068;2022-10-13T07:34:59;99391.84;;;16.03
40199;BMP280;25906;43.536;26.068;2022-10-13T07:37:45;99382.16;;;16.23
40199;BMP280;25906;43.536;26.068;2022-10-13T07:40:30;99381.53;;;16.13
40199;BMP280;25906;43.536;26.068;2022-10-13T07:43:16;99386.47;;;16.49
40199;BMP280;25906;43.536;26.068;2022-10-13T07:46:02;99390.28;;;16.67
40199;BMP280;25906;43.536;26.068;2022-10-13T07:48:51;99388.75;;;16.75
40199;BMP280;25906;43.536;26.068;2022-10-13T07:51:37;99389.44;;;16.87
40199;BMP280;25906;43.536;26.068;2022-10-13T07:54:23;99384.56;;;16.74
40199;BMP280;25906;43.536;26.068;2022-10-13T07:57:08;99388.22;;;17.13
40199;BMP280;25906;43.536;26.068;2022-10-13T07:59:54;99387.69;;;17.39
40199;BMP280;25906;43.536;26.068;2022-10-13T08:02:39;99385.38;;;17.47
40199;BMP280;25906;43.536;26.068;2022-10-13T08:05:25;99386.06;;;17.59
40199;BMP280;25906;43.536;26.068;2022-10-13T08:08:10;99382.41;;;17.54
40199;BMP280;25906;43.536;26.068;2022-10-13T08:11:01;99393.09;;;17.62
40199;BMP280;25906;43.536;26.068;2022-10-13T08:13:48;99384.09;;;17.48
40199;BMP280;25906;43.536;26.068;2022-10-13T08:16:34;99388.84;;;17.47
40199;BMP280;25906;43.536;26.068;2022-10-13T08:19:20;99382.88;;;17.75
40199;BMP280;25906;43.536;26.068;2022-10-13T08:22:07;99390.16;;;17.82
40199;BMP280;25906;43.536;26.068;2022-10-13T08:24:53;99392.38;;;17.86
40199;BMP280;25906;43.536;26.068;2022-10-13T08:27:38;99384.31;;;18.01
40199;BMP280;25906;43.536;26.068;2022-10-13T08:30:23;99387.47;;;18.09
40199;BMP280;25906;43.536;26.068;2022-10-13T08:33:09;99387.75;;;18.26
40199;BMP280;25906;43.536;26.068;2022-10-13T08:35:55;99388.16;;;18.34
40199;BMP280;25906;43.536;26.068;2022-10-13T08:38:40;99393.47;;;18.57
40199;BMP280;25906;43.536;26.068;2022-10-13T08:41:31;99389.50;;;18.73
40199;BMP280;25906;43.536;26.068;2022-10-13T08:47:23;99391.66;;;18.88
40199;BMP280;25906;43.536;26.068;2022-10-13T08:50:21;99392.75;;;18.83
40199;BMP280;25906;43.536;26.068;2022-10-13T08:58:53;99385.53;;;18.89
40199;BMP280;25906;43.536;26.068;2022-10-13T09:01:40;99391.41;;;18.97
40199;BMP280;25906;43.536;26.068;2022-10-13T09:04:35;99394.88;;;18.98
40199;BMP280;25906;43.536;26.068;2022-10-13T09:07:25;99391.03;;;18.89
40199;BMP280;25906;43.536;26.068;2022-10-13T09:10:12;99389.72;;;18.90
40199;BMP280;25906;43.536;26.068;2022-10-13T09:12:59;99391.44;;;18.71
40199;BMP280;25906;43.536;26.068;2022-10-13T09:15:47;99382.59;;;18.72
40199;BMP280;25906;43.536;26.068;2022-10-13T09:18:34;99383.91;;;18.85
40199;BMP280;25906;43.536;26.068;2022-10-13T09:21:24;99389.22;;;18.94
40199;BMP280;25906;43.536;26.068;2022-10-13T09:24:16;99389.66;;;19.17
40199;BMP280;25906;43.536;26.068;2022-10-13T09:27:14;99386.41;;;19.21
40199;BMP280;25906;43.536;26.068;2022-10-13T09:30:25;99384.97;;;19.20
40199;BMP280;25906;43.536;26.068;2022-10-13T09:41:51;99380.06;;;18.63
40199;BMP280;25906;43.536;26.068;2022-10-13T09:44:37;99387.94;;;19.10
40199;BMP280;25906;43.536;26.068;2022-10-13T09:47:23;99375.66;;;19.11
40199;BMP280;25906;43.536;26.068;2022-10-13T09:50:16;99370.88;;;19.12
40199;BMP280;25906;43.536;26.068;2022-10-13T09:53:19;99370.66;;;19.50
40199;BMP280;25906;43.536;26.068;2022-10-13T09:56:39;99363.50;;;19.58
40199;BMP280;25906;43.536;26.068;2022-10-13T09:59:51;99372.84;;;19.38
40199;BMP280;25906;43.536;26.068;2022-10-13T10:02:44;99362.06;;;19.42
40199;BMP280;25906;43.536;26.068;2022-10-13T10:08:42;99352.66;;;19.47
40199;BMP280;25906;43.536;26.068;2022-10-13T10:11:41;99353.53;;;19.36
40199;BMP280;25906;43.536;26.068;2022-10-13T10:14:30;99357.81;;;19.26
40199;BMP280;25906;43.536;26.068;2022-10-13T10:17:29;99351.88;;;19.44
40199;BMP280;25906;43.536;26.068;2022-10-13T10:23:41;99346.53;;;19.92
40199;BMP280;25906;43.536;26.068;2022-10-13T10:32:57;99335.69;;;19.81
40199;BMP280;25906;43.536;26.068;2022-10-13T10:36:07;99332.53;;;19.42
40199;BMP280;25906;43.536;26.068;2022-10-13T10:39:19;99328.19;;;19.37
40199;BMP280;25906;43.536;26.068;2022-10-13T10:42:16;99315.19;;;19.53
40199;BMP280;25906;43.536;26.068;2022-10-13T10:45:16;99311.88;;;20.01
40199;BMP280;25906;43.536;26.068;2022-10-13T10:48:07;99309.44;;;20.24
40199;BMP280;25906;43.536;26.068;2022-10-13T10:50:56;99308.31;;;20.13
40199;BMP280;25906;43.536;26.068;2022-10-13T10:56:41;99294.28;;;19.77
40199;BMP280;25906;43.536;26.068;2022-10-13T11:00:04;99295.97;;;19.99
40199;BMP280;25906;43.536;26.068;2022-10-13T11:03:05;99291.00;;;20.11
40199;BMP280;25906;43.536;26.068;2022-10-13T11:08:43;99282.94;;;20.47
40199;BMP280;25906;43.536;26.068;2022-10-13T11:11:30;99270.63;;;20.48
40199;BMP280;25906;43.536;26.068;2022-10-13T11:14:24;99274.22;;;20.36
40199;BMP280;25906;43.536;26.068;2022-10-13T11:25:50;99252.28;;;20.05
40199;BMP280;25906;43.536;26.068;2022-10-13T11:31:30;99250.75;;;20.17
40199;BMP280;25906;43.536;26.068;2022-10-13T11:34:30;99242.88;;;20.43
40199;BMP280;25906;43.536;26.068;2022-10-13T11:37:16;99242.59;;;20.37
40199;BMP280;25906;43.536;26.068;2022-10-13T11:52:46;99225.09;;;20.63
40199;BMP280;25906;43.536;26.068;2022-10-13T11:55:50;99222.56;;;20.34
40199;BMP280;25906;43.536;26.068;2022-10-13T11:58:40;99220.16;;;20.42
40199;BMP280;25906;43.536;26.068;2022-10-13T12:01:26;99215.81;;;20.54
40199;BMP280;25906;43.536;26.068;2022-10-13T12:04:13;99209.84;;;20.43
40199;BMP280;25906;43.536;26.068;2022-10-13T12:07:01;99208.84;;;20.86
40199;BMP280;25906;43.536;26.068;2022-10-13T12:09:56;99208.47;;;20.26
40199;BMP280;25906;43.536;26.068;2022-10-13T12:12:47;99210.72;;;20.64
40199;BMP280;25906;43.536;26.068;2022-10-13T12:15:40;99206.16;;;20.88
40199;BMP280;25906;43.536;26.068;2022-10-13T12:18:31;99211.91;;;20.94
40199;BMP280;25906;43.536;26.068;2022-10-13T12:21:21;99208.59;;;20.46
40199;BMP280;25906;43.536;26.068;2022-10-13T12:24:08;99208.28;;;20.55
40199;BMP280;25906;43.536;26.068;2022-10-13T12:26:54;99213.84;;;20.07
40199;BMP280;25906;43.536;26.068;2022-10-13T12:29:40;99213.97;;;19.94
40199;BMP280;25906;43.536;26.068;2022-10-13T12:32:28;99209.53;;;19.87
40199;BMP280;25906;43.536;26.068;2022-10-13T12:35:21;99203.53;;;19.60
40199;BMP280;25906;43.536;26.068;2022-10-13T12:38:16;99200.34;;;19.65
40199;BMP280;25906;43.536;26.068;2022-10-13T12:41:03;99196.78;;;19.63
40199;BMP280;25906;43.536;26.068;2022-10-13T12:43:49;99189.69;;;19.88
40199;BMP280;25906;43.536;26.068;2022-10-13T12:46:41;99188.97;;;19.88
40199;BMP280;25906;43.536;26.068;2022-10-13T12:49:34;99192.88;;;19.67
40199;BMP280;25906;43.536;26.068;2022-10-13T12:52:23;99187.59;;;19.56
40199;BMP280;25906;43.536;26.068;2022-10-13T12:55:17;99186.97;;;19.58
40199;BMP280;25906;43.536;26.068;2022-10-13T12:58:03;99181.97;;;19.85
40199;BMP280;25906;43.536;26.068;2022-10-13T13:01:33;99183.16;;;19.80
40199;BMP280;25906;43.536;26.068;2022-10-13T13:10:17;99175.78;;;20.17
40199;BMP280;25906;43.536;26.068;2022-10-13T13:13:13;99167.16;;;20.24
40199;BMP280;25906;43.536;26.068;2022-10-13T13:16:17;99171.31;;;20.43
40199;BMP280;25906;43.536;26.068;2022-10-13T13:19:03;99178.34;;;20.13
40199;BMP280;25906;43.536;26.068;2022-10-13T13:21:48;99172.97;;;20.49
40199;BMP280;25906;43.536;26.068;2022-10-13T13:24:34;99174.94;;;20.64
40199;BMP280;25906;43.536;26.068;2022-10-13T13:27:24;99167.88;;;20.59
40199;BMP280;25906;43.536;26.068;2022-10-13T13:30:11;99174.63;;;20.39
40199;BMP280;25906;43.536;26.068;2022-10-13T13:32:57;99174.34;;;20.16
40199;BMP280;25906;43.536;26.068;2022-10-13T13:35:42;99170.69;;;20.27
40199;BMP280;25906;43.536;26.068;2022-10-13T13:38:28;99164.25;;;20.20
40199;BMP280;25906;43.536;26.068;2022-10-13T13:41:14;99164.28;;;20.05
40199;BMP280;25906;43.536;26.068;2022-10-13T13:43:59;99162.91;;;19.73
40199;BMP280;25906;43.536;26.068;2022-10-13T13:46:45;99153.91;;;19.56
40199;BMP280;25906;43.536;26.068;2022-10-13T13:49:30;99152.19;;;19.64
40199;BMP280;25906;43.536;26.068;2022-10-13T13:52:16;99147.16;;;19.43
40199;BMP280;25906;43.536;26.068;2022-10-13T13:55:02;99157.09;;;19.50
40199;BMP280;25906;43.536;26.068;2022-10-13T13:57:48;99162.06;;;19.54
40199;BMP280;25906;43.536;26.068;2022-10-13T14:00:33;99164.34;;;19.59
40199;BMP280;25906;43.536;26.068;2022-10-13T14:03:18;99163.41;;;19.53
40199;BMP280;25906;43.536;26.068;2022-10-13T14:06:04;99158.25;;;19.45
40199;BMP280;25906;43.536;26.068;2022-10-13T14:08:50;99149.28;;;19.45
40199;BMP280;25906;43.536;26.068;2022-10-13T14:11:35;99153.34;;;19.59
40199;BMP280;25906;43.536;26.068;2022-10-13T14:14:21;99157.88;;;19.22
40199;BMP280;25906;43.536;26.068;2022-10-13T14:17:06;99156.47;;;19.36
40199;BMP280;25906;43.536;26.068;2022-10-13T14:19:51;99152.13;;;19.31
40199;BMP280;25906;43.536;26.068;2022-10-13T14:22:38;99147.16;;;19.43
40199;BMP280;25906;43.536;26.068;2022-10-13T14:25:23;99150.38;;;19.38
40199;BMP280;25906;43.536;26.068;2022-10-13T14:28:09;99139.13;;;19.17
40199;BMP280;25906;43.536;26.068;2022-10-13T14:30:54;99141.59;;;19.11
40199;BMP280;25906;43.536;26.068;2022-10-13T14:33:40;99145.19;;;19.00
40199;BMP280;25906;43.536;26.068;2022-10-13T14:36:25;99139.78;;;19.02
40199;BMP280;25906;43.536;26.068;2022-10-13T14:39:11;99134.38;;;18.88
40199;BMP280;25906;43.536;26.068;2022-10-13T14:41:56;99140.75;;;18.93
40199;BMP280;25906;43.536;26.068;2022-10-13T14:44:42;99139.63;;;18.98
40199;BMP280;25906;43.536;26.068;2022-10-13T14:47:27;99140.94;;;18.97
40199;BMP280;25906;43.536;26.068;2022-10-13T14:50:13;99148.38;;;18.94
40199;BMP280;25906;43.536;26.068;2022-10-13T14:52:58;99145.53;;;18.92
40199;BMP280;25906;43.536;26.068;2022-10-13T14:55:44;99159.84;;;18.76
40199;BMP280;25906;43.536;26.068;2022-10-13T14:58:29;99156.56;;;18.79
40199;BMP280;25906;43.536;26.068;2022-10-13T15:01:16;99153.47;;;18.71
40199;BMP280;25906;43.536;26.068;2022-10-13T15:04:02;99156.75;;;18.54
40199;BMP280;25906;43.536;26.068;2022-10-13T15:06:47;99156.38;;;18.47
40199;BMP280;25906;43.536;26.068;2022-10-13T15:09:33;99155.41;;;18.27
40199;BMP280;25906;43.536;26.068;2022-10-13T15:12:19;99160.91;;;18.13
40199;BMP280;25906;43.536;26.068;2022-10-13T15:15:04;99157.06;;;18.05
40199;BMP280;25906;43.536;26.068;2022-10-13T15:17:50;99148.34;;;17.95
40199;BMP280;25906;43.536;26.068;2022-10-13T15:20:35;99148.63;;;17.88
40199;BMP280;25906;43.536;26.068;2022-10-13T15:23:20;99141.84;;;17.62
40199;BMP280;25906;43.536;26.068;2022-10-13T15:26:06;99149.25;;;17.73
40199;BMP280;25906;43.536;26.068;2022-10-13T15:28:52;99153.41;;;17.61
40199;BMP280;25906;43.536;26.068;2022-10-13T15:31:38;99157.19;;;17.42
40199;BMP280;25906;43.536;26.068;2022-10-13T15:34:23;99159.69;;;17.25
40199;BMP280;25906;43.536;26.068;2022-10-13T15:37:09;99167.59;;;17.19
40199;BMP280;25906;43.536;26.068;2022-10-13T15:39:54;99172.19;;;17.03
40199;BMP280;25906;43.536;26.068;2022-10-13T15:42:40;99163.28;;;16.78
40199;BMP280;25906;43.536;26.068;2022-10-13T15:45:25;99162.19;;;16.83
40199;BMP280;25906;43.536;26.068;2022-10-13T15:48:11;99162.47;;;16.64
40199;BMP280;25906;43.536;26.068;2022-10-13T15:50:57;99163.59;;;16.59
40199;BMP280;25906;43.536;26.068;2022-10-13T15:53:42;99161.94;;;16.43
40199;BMP280;25906;43.536;26.068;2022-10-13T15:56:28;99158.50;;;16.42
40199;BMP280;25906;43.536;26.068;2022-10-13T15:59:13;99169.34;;;16.29
40199;BMP280;25906;43.536;26.068;2022-10-13T16:01:58;99159.47;;;16.24
40199;BMP280;25906;43.536;26.068;2022-10-13T16:04:44;99171.31;;;16.04
40199;BMP280;25906;43.536;26.068;2022-10-13T16:07:30;99165.09;;;16.03
40199;BMP280;25906;43.536;26.068;2022-10-13T16:10:16;99159.41;;;15.99
40199;BMP280;25906;43.536;26.068;2022-10-13T16:13:02;99167.38;;;15.95
40199;BMP280;25906;43.536;26.068;2022-10-13T16:15:58;99168.81;;;15.85
40199;BMP280;25906;43.536;26.068;2022-10-13T16:18:43;99175.06;;;15.88
40199;BMP280;25906;43.536;26.068;2022-10-13T16:21:29;99170.56;;;15.81
40199;BMP280;25906;43.536;26.068;2022-10-13T16:24:14;99166.28;;;15.89
40199;BMP280;25906;43.536;26.068;2022-10-13T16:27:00;99166.19;;;15.87
40199;BMP280;25906;43.536;26.068;2022-10-13T16:29:45;99170.72;;;15.83
40199;BMP280;25906;43.536;26.068;2022-10-13T16:32:36;99174.84;;;15.84
40199;BMP280;25906;43.536;26.068;2022-10-13T16:35:22;99170.19;;;15.75
40199;BMP280;25906;43.536;26.068;2022-10-13T16:38:07;99161.53;;;15.67
40199;BMP280;25906;43.536;26.068;2022-10-13T16:40:53;99162.63;;;15.73
40199;BMP280;25906;43.536;26.068;2022-10-13T16:43:38;99162.50;;;15.71
40199;BMP280;25906;43.536;26.068;2022-10-13T16:46:24;99171.59;;;15.64
40199;BMP280;25906;43.536;26.068;2022-10-13T16:49:10;99166.63;;;15.50
40199;BMP280;25906;43.536;26.068;2022-10-13T16:51:55;99161.75;;;15.48
40199;BMP280;25906;43.536;26.068;2022-10-13T16:54:41;99164.50;;;15.48
40199;BMP280;25906;43.536;26.068;2022-10-13T16:57:28;99157.38;;;15.43
40199;BMP280;25906;43.536;26.068;2022-10-13T17:00:13;99148.22;;;15.39
40199;BMP280;25906;43.536;26.068;2022-10-13T17:02:58;99148.06;;;15.37
40199;BMP280;25906;43.536;26.068;2022-10-13T17:05:44;99151.38;;;15.24
40199;BMP280;25906;43.536;26.068;2022-10-13T17:08:30;99149.50;;;15.26
40199;BMP280;25906;43.536;26.068;2022-10-13T17:11:19;99141.19;;;15.24
40199;BMP280;25906;43.536;26.068;2022-10-13T17:14:05;99141.41;;;15.28
40199;BMP280;25906;43.536;26.068;2022-10-13T17:16:50;99146.41;;;15.20